sensor_id;sensor_type;location;lat;lon;timestamp;pressure;altitude;pressure_sealevel;temperature;humidity
51289;BME280;37372;52.294;5.152;2023-04-01T00:02:03;99019.47;;;9.13;88.96
51289;BME280;37372;52.294;5.152;2023-04-01T00:04:41;99015.91;;;9.13;89.27
51289;BME280;37372;52.294;5.152;2023-04-01T00:07:10;99015.41;;;9.16;89.56
51289;BME280;37372;52.294;5.152;2023-04-01T00:09:36;99015.94;;;9.18;89.05
51289;BME280;37372;52.294;5.152;2023-04-01T00:12:07;99018.63;;;9.08;88.89
51289;BME280;37372;52.294;5.152;2023-04-01T00:14:35;99022.44;;;9.07;89.55
51289;BME280;37372;52.294;5.152;2023-04-01T00:17:13;99020.00;;;9.10;89.49
51289;BME280;37372;52.294;5.152;2023-04-01T00:19:38;99021.06;;;9.04;88.96
51289;BME280;37372;52.294;5.152;2023-04-01T00:22:05;99027.91;;;9.02;89.12
51289;BME280;37372;52.294;5.152;2023-04-01T00:24:31;99030.38;;;9.03;89.42
51289;BME280;37372;52.294;5.152;2023-04-01T00:26:57;99029.56;;;9.03;89.47
51289;BME280;37372;52.294;5.152;2023-04-01T00:29:23;99028.69;;;8.97;89.92
51289;BME280;37372;52.294;5.152;2023-04-01T00:31:58;99028.97;;;9.01;89.62
51289;BME280;37372;52.294;5.152;2023-04-01T00:34:24;99026.47;;;8.94;89.95
51289;BME280;37372;52.294;5.152;2023-04-01T00:36:58;99025.63;;;8.88;89.96
51289;BME280;37372;52.294;5.152;2023-04-01T00:39:24;99026.97;;;8.86;90.01
51289;BME280;37372;52.294;5.152;2023-04-01T00:42:09;99027.84;;;8.91;89.83
51289;BME280;37372;52.294;5.152;2023-04-01T00:44:37;99032.22;;;8.92;89.78
51289;BME280;37372;52.294;5.152;2023-04-01T00:47:13;99034.16;;;8.97;89.74
51289;BME280;37372;52.294;5.152;2023-04-01T00:49:44;99034.38;;;8.85;89.51
51289;BME280;37372;52.294;5.152;2023-04-01T00:52:16;99034.91;;;8.82;89.73
51289;BME280;37372;52.294;5.152;2023-04-01T00:54:46;99037.41;;;8.94;89.92
51289;BME280;37372;52.294;5.152;2023-04-01T00:57:25;99041.47;;;8.86;89.24
51289;BME280;37372;52.294;5.152;2023-04-01T00:59:54;99044.47;;;8.85;89.82
51289;BME280;37372;52.294;5.152;2023-04-01T01:02:22;99033.50;;;8.80;89.93
51289;BME280;37372;52.294;5.152;2023-04-01T01:04:48;99043.06;;;8.77;89.94
51289;BME280;37372;52.294;5.152;2023-04-01T01:10:24;99037.56;;;8.72;89.48
51289;BME280;37372;52.294;5.152;2023-04-01T01:15:26;99043.28;;;8.71;90.16
51289;BME280;37372;52.294;5.152;2023-04-01T01:20:35;99046.75;;;8.61;90.30
51289;BME280;37372;52.294;5.152;2023-04-01T01:32:19;99053.31;;;8.60;89.88
51289;BME280;37372;52.294;5.152;2023-04-01T01:37:45;99048.63;;;8.50;90.05
51289;BME280;37372;52.294;5.152;2023-04-01T01:40:13;99047.81;;;8.55;89.89
51289;BME280;37372;52.294;5.152;2023-04-01T01:42:45;99053.88;;;8.57;90.62
51289;BME280;37372;52.294;5.152;2023-04-01T01:45:19;99054.31;;;8.49;90.13
51289;BME280;37372;52.294;5.152;2023-04-01T01:47:50;99056.78;;;8.45;90.12
51289;BME280;37372;52.294;5.152;2023-04-01T01:50:16;99053.22;;;8.50;89.93
51289;BME280;37372;52.294;5.152;2023-04-01T01:52:43;99063.06;;;8.46;89.96
51289;BME280;37372;52.294;5.152;2023-04-01T01:55:29;99063.63;;;8.48;90.58
51289;BME280;37372;52.294;5.152;2023-04-01T01:57:59;99069.59;;;8.45;90.21
51289;BME280;37372;52.294;5.152;2023-04-01T02:00:25;99067.97;;;8.49;90.28
51289;BME280;37372;52.294;5.152;2023-04-01T02:02:51;99068.81;;;8.49;90.43
51289;BME280;37372;52.294;5.152;2023-04-01T02:05:23;99065.25;;;8.49;90.40
51289;BME280;37372;52.294;5.152;2023-04-01T02:07:57;99067.69;;;8.45;90.21
51289;BME280;37372;52.294;5.152;2023-04-01T02:10:40;99075.91;;;8.45;90.63
51289;BME280;37372;52.294;5.152;2023-04-01T02:16:00;99078.84;;;8.38;90.75
51289;BME280;37372;52.294;5.152;2023-04-01T02:18:33;99078.03;;;8.38;91.30
51289;BME280;37372;52.294;5.152;2023-04-01T02:21:04;99086.47;;;8.36;91.16
51289;BME280;37372;52.294;5.152;2023-04-01T02:23:33;99091.41;;;8.39;91.13
51289;BME280;37372;52.294;5.152;2023-04-01T02:26:11;99090.38;;;8.46;91.14
51289;BME280;37372;52.294;5.152;2023-04-01T02:28:39;99091.72;;;8.43;90.78
51289;BME280;37372;52.294;5.152;2023-04-01T02:31:10;99097.72;;;8.40;90.85
51289;BME280;37372;52.294;5.152;2023-04-01T02:33:38;99098.31;;;8.47;91.53
51289;BME280;37372;52.294;5.152;2023-04-01T02:36:05;99105.97;;;8.45;91.16
51289;BME280;37372;52.294;5.152;2023-04-01T02:38:31;99109.56;;;8.51;91.12
51289;BME280;37372;52.294;5.152;2023-04-01T02:41:01;99105.16;;;8.50;90.74
51289;BME280;37372;52.294;5.152;2023-04-01T02:43:28;99100.53;;;8.50;90.30
51289;BME280;37372;52.294;5.152;2023-04-01T02:45:56;99107.38;;;8.53;90.40
51289;BME280;37372;52.294;5.152;2023-04-01T02:48:28;99119.34;;;8.47;90.93
51289;BME280;37372;52.294;5.152;2023-04-01T02:50:55;99111.22;;;8.52;91.06
51289;BME280;37372;52.294;5.152;2023-04-01T02:53:21;99120.50;;;8.51;91.06
51289;BME280;37372;52.294;5.152;2023-04-01T02:55:47;99118.00;;;8.49;91.31
51289;BME280;37372;52.294;5.152;2023-04-01T02:58:16;99125.38;;;8.49;91.47
51289;BME280;37372;52.294;5.152;2023-04-01T03:00:42;99131.16;;;8.52;91.51
51289;BME280;37372;52.294;5.152;2023-04-01T03:03:10;99133.06;;;8.52;91.38
51289;BME280;37372;52.294;5.152;2023-04-01T03:05:41;99139.63;;;8.51;91.08
51289;BME280;37372;52.294;5.152;2023-04-01T03:08:11;99136.88;;;8.51;91.53
51289;BME280;37372;52.294;5.152;2023-04-01T03:10:37;99145.59;;;8.48;91.28
51289;BME280;37372;52.294;5.152;2023-04-01T03:13:03;99141.22;;;8.47;91.44
51289;BME280;37372;52.294;5.152;2023-04-01T03:15:35;99147.81;;;8.51;91.79
51289;BME280;37372;52.294;5.152;2023-04-01T03:18:07;99154.34;;;8.50;91.63
51289;BME280;37372;52.294;5.152;2023-04-01T03:20:34;99154.94;;;8.52;91.89
51289;BME280;37372;52.294;5.152;2023-04-01T03:22:59;99163.41;;;8.55;92.08
51289;BME280;37372;52.294;5.152;2023-04-01T03:25:25;99163.41;;;8.50;91.96
51289;BME280;37372;52.294;5.152;2023-04-01T03:27:51;99168.88;;;8.50;92.18
51289;BME280;37372;52.294;5.152;2023-04-01T03:30:17;99165.59;;;8.53;92.37
51289;BME280;37372;52.294;5.152;2023-04-01T03:32:45;99167.25;;;8.54;92.42
51289;BME280;37372;52.294;5.152;2023-04-01T03:35:11;99176.88;;;8.62;92.17
51289;BME280;37372;52.294;5.152;2023-04-01T03:37:59;99176.31;;;8.60;92.00
51289;BME280;37372;52.294;5.152;2023-04-01T03:40:24;99173.09;;;8.68;92.19
51289;BME280;37372;52.294;5.152;2023-04-01T03:42:51;99182.13;;;8.68;92.33
51289;BME280;37372;52.294;5.152;2023-04-01T03:45:18;99186.31;;;8.76;92.27
51289;BME280;37372;52.294;5.152;2023-04-01T03:47:58;99184.41;;;8.77;92.04
51289;BME280;37372;52.294;5.152;2023-04-01T03:50:29;99201.63;;;8.77;91.99
51289;BME280;37372;52.294;5.152;2023-04-01T03:53:03;99197.59;;;8.85;91.82
51289;BME280;37372;52.294;5.152;2023-04-01T03:55:29;99204.94;;;8.79;91.56
51289;BME280;37372;52.294;5.152;2023-04-01T03:58:04;99203.78;;;8.75;91.63
51289;BME280;37372;52.294;5.152;2023-04-01T04:00:31;99215.47;;;8.65;92.01
51289;BME280;37372;52.294;5.152;2023-04-01T04:03:00;99219.56;;;8.68;91.81
51289;BME280;37372;52.294;5.152;2023-04-01T04:05:31;99218.97;;;8.61;92.07
51289;BME280;37372;52.294;5.152;2023-04-01T04:08:08;99221.44;;;8.62;92.04
51289;BME280;37372;52.294;5.152;2023-04-01T04:10:34;99228.81;;;8.62;91.99
51289;BME280;37372;52.294;5.152;2023-04-01T04:13:01;99234.03;;;8.63;92.06
51289;BME280;37372;52.294;5.152;2023-04-01T04:15:27;99234.03;;;8.63;92.03
51289;BME280;37372;52.294;5.152;2023-04-01T04:18:06;99245.00;;;8.68;92.13
51289;BME280;37372;52.294;5.152;2023-04-01T04:20:32;99245.88;;;8.74;91.88
51289;BME280;37372;52.294;5.152;2023-04-01T04:23:03;99248.25;;;8.65;91.84
51289;BME280;37372;52.294;5.152;2023-04-01T04:25:29;99255.38;;;8.66;92.15
51289;BME280;37372;52.294;5.152;2023-04-01T04:28:07;99253.72;;;8.65;91.53
51289;BME280;37372;52.294;5.152;2023-04-01T04:30:32;99259.25;;;8.71;91.85
51289;BME280;37372;52.294;5.152;2023-04-01T04:33:07;99259.50;;;8.69;91.72
51289;BME280;37372;52.294;5.152;2023-04-01T04:35:33;99266.09;;;8.73;91.98
51289;BME280;37372;52.294;5.152;2023-04-01T04:38:00;99269.66;;;8.74;91.75
51289;BME280;37372;52.294;5.152;2023-04-01T04:40:26;99272.94;;;8.71;91.61
51289;BME280;37372;52.294;5.152;2023-04-01T04:43:00;99280.34;;;8.75;91.73
51289;BME280;37372;52.294;5.152;2023-04-01T04:45:29;99283.66;;;8.77;91.74
51289;BME280;37372;52.294;5.152;2023-04-01T04:48:03;99294.13;;;8.85;91.79
51289;BME280;37372;52.294;5.152;2023-04-01T04:50:28;99298.41;;;8.76;91.73
51289;BME280;37372;52.294;5.152;2023-04-01T04:53:13;99295.22;;;8.84;91.44
51289;BME280;37372;52.294;5.152;2023-04-01T04:55:49;99304.72;;;8.77;91.49
51289;BME280;37372;52.294;5.152;2023-04-01T04:58:17;99310.19;;;8.77;91.74
51289;BME280;37372;52.294;5.152;2023-04-01T05:00:43;99302.47;;;8.74;91.81
51289;BME280;37372;52.294;5.152;2023-04-01T05:03:10;99306.34;;;8.78;91.48
51289;BME280;37372;52.294;5.152;2023-04-01T05:05:36;99323.84;;;8.77;91.43
51289;BME280;37372;52.294;5.152;2023-04-01T05:08:04;99320.53;;;8.75;91.42
51289;BME280;37372;52.294;5.152;2023-04-01T05:10:30;99332.56;;;8.74;91.97
51289;BME280;37372;52.294;5.152;2023-04-01T05:13:15;99337.75;;;8.75;91.73
51289;BME280;37372;52.294;5.152;2023-04-01T05:15:43;99342.16;;;8.76;91.62
51289;BME280;37372;52.294;5.152;2023-04-01T05:18:15;99344.84;;;8.71;91.80
51289;BME280;37372;52.294;5.152;2023-04-01T05:23:25;99350.31;;;8.71;91.99
51289;BME280;37372;52.294;5.152;2023-04-01T05:25:51;99349.97;;;8.67;92.03
51289;BME280;37372;52.294;5.152;2023-04-01T05:28:19;99346.22;;;8.74;92.06
51289;BME280;37372;52.294;5.152;2023-04-01T05:30:45;99357.72;;;8.76;91.91
51289;BME280;37372;52.294;5.152;2023-04-01T05:33:14;99363.38;;;8.69;91.86
51289;BME280;37372;52.294;5.152;2023-04-01T05:35:43;99358.50;;;8.71;91.98
51289;BME280;37372;52.294;5.152;2023-04-01T05:38:18;99363.63;;;8.67;91.96
51289;BME280;37372;52.294;5.152;2023-04-01T05:40:44;99373.25;;;8.70;92.00
51289;BME280;37372;52.294;5.152;2023-04-01T05:43:17;99377.63;;;8.71;91.96
51289;BME280;37372;52.294;5.152;2023-04-01T05:45:42;99383.94;;;8.72;92.23
51289;BME280;37372;52.294;5.152;2023-04-01T05:48:12;99392.97;;;8.72;91.92
51289;BME280;37372;52.294;5.152;2023-04-01T05:50:40;99391.56;;;8.70;92.26
51289;BME280;37372;52.294;5.152;2023-04-01T05:53:22;99397.34;;;8.73;92.47
51289;BME280;37372;52.294;5.152;2023-04-01T05:55:48;99399.06;;;8.79;92.31
51289;BME280;37372;52.294;5.152;2023-04-01T05:58:22;99405.06;;;8.76;92.12
51289;BME280;37372;52.294;5.152;2023-04-01T06:01:09;99415.38;;;8.74;92.14
51289;BME280;37372;52.294;5.152;2023-04-01T06:03:43;99408.09;;;8.80;92.23
51289;BME280;37372;52.294;5.152;2023-04-01T06:06:22;99416.22;;;8.75;91.94
51289;BME280;37372;52.294;5.152;2023-04-01T06:08:52;99425.25;;;8.75;92.11
51289;BME280;37372;52.294;5.152;2023-04-01T06:11:23;99424.19;;;8.76;92.25
51289;BME280;37372;52.294;5.152;2023-04-01T06:25:10;99452.72;;;8.85;91.42
51289;BME280;37372;52.294;5.152;2023-04-01T06:27:55;99462.91;;;8.90;91.48
51289;BME280;37372;52.294;5.152;2023-04-01T06:30:30;99459.91;;;8.91;91.86
51289;BME280;37372;52.294;5.152;2023-04-01T06:39:50;99469.66;;;8.82;92.23
51289;BME280;37372;52.294;5.152;2023-04-01T06:45:08;99485.47;;;8.80;92.26
51289;BME280;37372;52.294;5.152;2023-04-01T06:47:50;99496.41;;;8.80;92.17
51289;BME280;37372;52.294;5.152;2023-04-01T06:50:30;99495.47;;;8.91;92.03
51289;BME280;37372;52.294;5.152;2023-04-01T06:56:06;99506.91;;;8.88;92.38
51289;BME280;37372;52.294;5.152;2023-04-01T06:58:41;99502.84;;;8.91;92.47
51289;BME280;37372;52.294;5.152;2023-04-01T07:01:25;99509.59;;;9.05;92.52
51289;BME280;37372;52.294;5.152;2023-04-01T07:03:56;99512.53;;;8.99;92.23
51289;BME280;37372;52.294;5.152;2023-04-01T07:06:35;99519.72;;;9.05;92.04
51289;BME280;37372;52.294;5.152;2023-04-01T07:09:06;99522.97;;;9.02;92.07
51289;BME280;37372;52.294;5.152;2023-04-01T07:11:35;99519.47;;;9.06;92.16
51289;BME280;37372;52.294;5.152;2023-04-01T07:14:25;99526.84;;;9.06;91.68
51289;BME280;37372;52.294;5.152;2023-04-01T07:17:18;99531.50;;;9.05;91.90
51289;BME280;37372;52.294;5.152;2023-04-01T07:20:13;99536.13;;;9.05;91.86
51289;BME280;37372;52.294;5.152;2023-04-01T07:22:48;99544.72;;;9.13;91.98
51289;BME280;37372;52.294;5.152;2023-04-01T07:25:24;99546.97;;;9.16;92.15
51289;BME280;37372;52.294;5.152;2023-04-01T07:27:53;99549.78;;;9.21;92.26
51289;BME280;37372;52.294;5.152;2023-04-01T07:30:23;99550.16;;;9.30;91.60
51289;BME280;37372;52.294;5.152;2023-04-01T07:36:18;99564.19;;;9.39;91.14
51289;BME280;37372;52.294;5.152;2023-04-01T07:39:08;99568.28;;;9.36;91.26
51289;BME280;37372;52.294;5.152;2023-04-01T07:42:02;99569.00;;;9.48;91.50
51289;BME280;37372;52.294;5.152;2023-04-01T07:55:28;99587.44;;;9.58;91.06
51289;BME280;37372;52.294;5.152;2023-04-01T07:58:07;99592.69;;;9.60;91.32
51289;BME280;37372;52.294;5.152;2023-04-01T08:00:51;99601.06;;;9.53;90.88
51289;BME280;37372;52.294;5.152;2023-04-01T08:06:53;99603.97;;;9.46;90.99
51289;BME280;37372;52.294;5.152;2023-04-01T08:12:47;99621.25;;;9.47;91.91
51289;BME280;37372;52.294;5.152;2023-04-01T08:15:25;99622.22;;;9.58;90.90
51289;BME280;37372;52.294;5.152;2023-04-01T08:17:56;99626.84;;;9.57;91.03
51289;BME280;37372;52.294;5.152;2023-04-01T08:20:46;99635.91;;;9.58;91.15
51289;BME280;37372;52.294;5.152;2023-04-01T08:23:20;99633.28;;;9.46;90.04
51289;BME280;37372;52.294;5.152;2023-04-01T08:29:00;99642.13;;;9.53;90.93
51289;BME280;37372;52.294;5.152;2023-04-01T08:31:35;99645.13;;;9.52;90.84
51289;BME280;37372;52.294;5.152;2023-04-01T08:34:49;99644.38;;;9.56;91.12
51289;BME280;37372;52.294;5.152;2023-04-01T08:37:26;99659.22;;;9.60;91.32
51289;BME280;37372;52.294;5.152;2023-04-01T08:46:00;99667.47;;;9.65;90.64
51289;BME280;37372;52.294;5.152;2023-04-01T08:52:24;99677.13;;;9.68;90.98
51289;BME280;37372;52.294;5.152;2023-04-01T08:54:48;99674.13;;;9.69;91.20
51289;BME280;37372;52.294;5.152;2023-04-01T09:19:47;99716.72;;;9.60;91.70
51289;BME280;37372;52.294;5.152;2023-04-01T09:34:20;99723.75;;;9.73;91.99
51289;BME280;37372;52.294;5.152;2023-04-01T09:51:23;99760.44;;;10.16;92.08
51289;BME280;37372;52.294;5.152;2023-04-01T09:54:07;99755.16;;;10.09;90.68
51289;BME280;37372;52.294;5.152;2023-04-01T09:59:58;99763.09;;;10.06;89.95
51289;BME280;37372;52.294;5.152;2023-04-01T10:27:03;99783.84;;;10.67;87.31
51289;BME280;37372;52.294;5.152;2023-04-01T10:30:13;99790.13;;;10.63;87.87
51289;BME280;37372;52.294;5.152;2023-04-01T10:38:58;99797.19;;;10.58;87.96
51289;BME280;37372;52.294;5.152;2023-04-01T10:41:49;99800.91;;;10.47;88.07
51289;BME280;37372;52.294;5.152;2023-04-01T10:50:24;99812.50;;;10.76;87.87
51289;BME280;37372;52.294;5.152;2023-04-01T11:01:27;99818.19;;;10.48;88.49
51289;BME280;37372;52.294;5.152;2023-04-01T11:26:33;99851.09;;;10.48;88.30
51289;BME280;37372;52.294;5.152;2023-04-01T11:41:19;99865.63;;;10.48;88.06
51289;BME280;37372;52.294;5.152;2023-04-01T11:52:33;99887.63;;;10.53;88.00
51289;BME280;37372;52.294;5.152;2023-04-01T11:55:32;99886.13;;;10.63;87.08
51289;BME280;37372;52.294;5.152;2023-04-01T11:58:22;99886.53;;;10.54;86.81
51289;BME280;37372;52.294;5.152;2023-04-01T12:06:38;99901.53;;;10.47;87.48
51289;BME280;37372;52.294;5.152;2023-04-01T12:12:29;99916.88;;;10.48;89.26
51289;BME280;37372;52.294;5.152;2023-04-01T12:29:09;99928.84;;;10.80;88.49
51289;BME280;37372;52.294;5.152;2023-04-01T12:34:40;99942.81;;;11.23;87.04
51289;BME280;37372;52.294;5.152;2023-04-01T12:40:36;99949.81;;;11.62;85.86
51289;BME280;37372;52.294;5.152;2023-04-01T12:43:28;99956.69;;;11.60;85.80
51289;BME280;37372;52.294;5.152;2023-04-01T12:49:04;99959.97;;;11.13;86.50
51289;BME280;37372;52.294;5.152;2023-04-01T12:52:17;99959.09;;;10.85;86.49
51289;BME280;37372;52.294;5.152;2023-04-01T13:01:19;99978.81;;;10.27;88.65
51289;BME280;37372;52.294;5.152;2023-04-01T13:10:27;99998.78;;;10.11;90.35
51289;BME280;37372;52.294;5.152;2023-04-01T13:16:19;100004.75;;;9.91;90.29
51289;BME280;37372;52.294;5.152;2023-04-01T13:22:11;100009.56;;;9.84;90.93
51289;BME280;37372;52.294;5.152;2023-04-01T13:31:02;100023.56;;;9.70;91.14
51289;BME280;37372;52.294;5.152;2023-04-01T13:33:41;100025.97;;;9.67;91.22
51289;BME280;37372;52.294;5.152;2023-04-01T13:36:34;100039.00;;;9.60;90.84
51289;BME280;37372;52.294;5.152;2023-04-01T13:51:04;100046.63;;;9.46;91.69
51289;BME280;37372;52.294;5.152;2023-04-01T13:56:50;100059.59;;;9.50;91.44
51289;BME280;37372;52.294;5.152;2023-04-01T14:20:33;100087.53;;;9.64;90.56
51289;BME280;37372;52.294;5.152;2023-04-01T14:26:50;100108.50;;;9.59;89.99
51289;BME280;37372;52.294;5.152;2023-04-01T14:32:38;100119.72;;;9.45;89.97
51289;BME280;37372;52.294;5.152;2023-04-01T14:35:35;100126.78;;;9.41;89.36
51289;BME280;37372;52.294;5.152;2023-04-01T14:38:42;100122.00;;;9.37;89.52
51289;BME280;37372;52.294;5.152;2023-04-01T14:41:46;100129.50;;;9.41;89.82
51289;BME280;37372;52.294;5.152;2023-04-01T14:50:28;100141.63;;;9.34;90.07
51289;BME280;37372;52.294;5.152;2023-04-01T14:58:14;100159.25;;;9.26;89.48
51289;BME280;37372;52.294;5.152;2023-04-01T15:03:52;100173.31;;;9.30;89.91
51289;BME280;37372;52.294;5.152;2023-04-01T15:28:29;100222.44;;;9.25;89.60
51289;BME280;37372;52.294;5.152;2023-04-01T15:36:51;100233.25;;;9.08;89.60
51289;BME280;37372;52.294;5.152;2023-04-01T15:42:10;100243.50;;;9.12;89.50
51289;BME280;37372;52.294;5.152;2023-04-01T15:53:28;100263.97;;;9.10;89.12
51289;BME280;37372;52.294;5.152;2023-04-01T16:11:32;100304.97;;;8.98;89.44
51289;BME280;37372;52.294;5.152;2023-04-01T16:14:12;100316.16;;;8.97;89.97
51289;BME280;37372;52.294;5.152;2023-04-01T16:16:49;100317.44;;;8.94;90.12
51289;BME280;37372;52.294;5.152;2023-04-01T16:19:49;100325.06;;;8.92;90.04
51289;BME280;37372;52.294;5.152;2023-04-01T16:31:25;100342.78;;;8.89;90.39
51289;BME280;37372;52.294;5.152;2023-04-01T16:34:08;100344.38;;;8.79;90.86
51289;BME280;37372;52.294;5.152;2023-04-01T16:39:44;100359.06;;;8.66;90.09
51289;BME280;37372;52.294;5.152;2023-04-01T16:48:19;100376.56;;;8.65;89.15
51289;BME280;37372;52.294;5.152;2023-04-01T16:51:22;100375.94;;;8.63;89.01
51289;BME280;37372;52.294;5.152;2023-04-01T16:54:10;100388.41;;;8.59;88.56
51289;BME280;37372;52.294;5.152;2023-04-01T16:56:49;100392.22;;;8.58;88.75
51289;BME280;37372;52.294;5.152;2023-04-01T16:59:27;100401.09;;;8.53;88.45
51289;BME280;37372;52.294;5.152;2023-04-01T17:08:00;100426.16;;;8.50;88.38
51289;BME280;37372;52.294;5.152;2023-04-01T17:22:22;100456.59;;;8.29;89.44
51289;BME280;37372;52.294;5.152;2023-04-01T17:25:13;100463.38;;;8.26;89.77
51289;BME280;37372;52.294;5.152;2023-04-01T17:28:34;100470.94;;;8.24;89.49
51289;BME280;37372;52.294;5.152;2023-04-01T17:36:24;100493.88;;;8.23;88.54
51289;BME280;37372;52.294;5.152;2023-04-01T17:39:07;100501.63;;;8.26;88.84
51289;BME280;37372;52.294;5.152;2023-04-01T17:45:04;100513.81;;;8.24;88.39
51289;BME280;37372;52.294;5.152;2023-04-01T17:53:23;100533.47;;;8.14;87.50
51289;BME280;37372;52.294;5.152;2023-04-01T17:56:21;100530.72;;;8.14;87.75
51289;BME280;37372;52.294;5.152;2023-04-01T17:59:29;100538.75;;;8.09;87.06
51289;BME280;37372;52.294;5.152;2023-04-01T18:02:24;100546.56;;;8.05;87.05
51289;BME280;37372;52.294;5.152;2023-04-01T18:14:18;100577.56;;;7.93;88.81
51289;BME280;37372;52.294;5.152;2023-04-01T18:22:26;100599.59;;;7.91;88.83
51289;BME280;37372;52.294;5.152;2023-04-01T18:26:06;100608.50;;;7.80;87.85
51289;BME280;37372;52.294;5.152;2023-04-01T18:28:27;100625.31;;;7.77;87.85
51289;BME280;37372;52.294;5.152;2023-04-01T18:36:21;100646.97;;;7.72;88.72
51289;BME280;37372;52.294;5.152;2023-04-01T18:38:57;100657.09;;;7.65;87.90
51289;BME280;37372;52.294;5.152;2023-04-01T18:46:51;100679.13;;;7.63;88.47
51289;BME280;37372;52.294;5.152;2023-04-01T18:52:41;100689.47;;;7.54;87.96
51289;BME280;37372;52.294;5.152;2023-04-01T18:55:20;100696.41;;;7.50;87.50
51289;BME280;37372;52.294;5.152;2023-04-01T18:57:53;100701.88;;;7.50;87.21
51289;BME280;37372;52.294;5.152;2023-04-01T19:00:26;100698.91;;;7.52;87.09
51289;BME280;37372;52.294;5.152;2023-04-01T19:03:27;100706.91;;;7.47;87.23
51289;BME280;37372;52.294;5.152;2023-04-01T19:06:19;100718.47;;;7.49;86.76
51289;BME280;37372;52.294;5.152;2023-04-01T19:08:46;100729.59;;;7.47;87.15
51289;BME280;37372;52.294;5.152;2023-04-01T19:11:38;100732.47;;;7.59;88.49
51289;BME280;37372;52.294;5.152;2023-04-01T19:33:52;100788.38;;;7.30;86.30
51289;BME280;37372;52.294;5.152;2023-04-01T19:52:40;100826.59;;;7.23;86.64
51289;BME280;37372;52.294;5.152;2023-04-01T19:55:37;100825.09;;;7.14;86.13
51289;BME280;37372;52.294;5.152;2023-04-01T19:58:20;100833.50;;;7.19;86.38
51289;BME280;37372;52.294;5.152;2023-04-01T20:01:10;100844.41;;;7.19;86.00
51289;BME280;37372;52.294;5.152;2023-04-01T20:03:47;100839.38;;;7.10;86.35
51289;BME280;37372;52.294;5.152;2023-04-01T20:08:49;100869.56;;;7.01;85.77
51289;BME280;37372;52.294;5.152;2023-04-01T20:11:30;100866.81;;;6.95;85.65
51289;BME280;37372;52.294;5.152;2023-04-01T20:14:13;100876.47;;;6.91;86.06
51289;BME280;37372;52.294;5.152;2023-04-01T20:16:49;100877.09;;;6.93;86.22
51289;BME280;37372;52.294;5.152;2023-04-01T20:19:33;100888.47;;;6.96;85.76
51289;BME280;37372;52.294;5.152;2023-04-01T20:22:02;100894.53;;;6.92;85.35
51289;BME280;37372;52.294;5.152;2023-04-01T20:24:41;100900.38;;;6.95;86.11
51289;BME280;37372;52.294;5.152;2023-04-01T20:32:43;100909.81;;;6.86;84.99
51289;BME280;37372;52.294;5.152;2023-04-01T20:38:35;100923.22;;;6.81;84.32
51289;BME280;37372;52.294;5.152;2023-04-01T20:46:48;100954.66;;;6.70;83.89
51289;BME280;37372;52.294;5.152;2023-04-01T20:51:54;100967.19;;;6.65;83.97
51289;BME280;37372;52.294;5.152;2023-04-01T20:57:35;100975.16;;;6.66;84.79
51289;BME280;37372;52.294;5.152;2023-04-01T21:00:31;100977.22;;;6.58;83.90
51289;BME280;37372;52.294;5.152;2023-04-01T21:03:20;100981.22;;;6.62;83.96
51289;BME280;37372;52.294;5.152;2023-04-01T21:11:55;100999.06;;;6.64;84.49
51289;BME280;37372;52.294;5.152;2023-04-01T21:17:22;101009.06;;;6.50;83.54
51289;BME280;37372;52.294;5.152;2023-04-01T21:20:23;101015.56;;;6.56;83.89
51289;BME280;37372;52.294;5.152;2023-04-01T21:26:52;101027.69;;;6.47;83.52
51289;BME280;37372;52.294;5.152;2023-04-01T21:29:30;101034.19;;;6.46;84.07
51289;BME280;37372;52.294;5.152;2023-04-01T21:47:36;101072.81;;;6.28;83.92
51289;BME280;37372;52.294;5.152;2023-04-01T21:53:06;101083.19;;;6.18;83.63
51289;BME280;37372;52.294;5.152;2023-04-01T21:55:56;101091.97;;;6.13;83.84
51289;BME280;37372;52.294;5.152;2023-04-01T22:09:33;101108.69;;;6.10;83.51
51289;BME280;37372;52.294;5.152;2023-04-01T22:12:19;101112.50;;;6.16;83.58
51289;BME280;37372;52.294;5.152;2023-04-01T22:21:04;101131.38;;;6.17;84.17
51289;BME280;37372;52.294;5.152;2023-04-01T22:23:45;101142.28;;;6.17;84.48
51289;BME280;37372;52.294;5.152;2023-04-01T22:37:58;101161.88;;;6.06;83.43
51289;BME280;37372;52.294;5.152;2023-04-01T22:41:03;101162.03;;;6.05;84.18
51289;BME280;37372;52.294;5.152;2023-04-01T22:43:42;101165.44;;;6.07;84.04
51289;BME280;37372;52.294;5.152;2023-04-01T22:49:08;101182.44;;;6.09;83.58
51289;BME280;37372;52.294;5.152;2023-04-01T22:52:09;101200.84;;;6.07;83.61
51289;BME280;37372;52.294;5.152;2023-04-01T22:54:49;101193.66;;;5.99;83.95
51289;BME280;37372;52.294;5.152;2023-04-01T23:02:33;101207.34;;;6.06;83.00
51289;BME280;37372;52.294;5.152;2023-04-01T23:05:03;101218.66;;;6.09;84.01
51289;BME280;37372;52.294;5.152;2023-04-01T23:10:39;101212.88;;;5.97;83.39
51289;BME280;37372;52.294;5.152;2023-04-01T23:13:15;101213.53;;;6.00;83.62
51289;BME280;37372;52.294;5.152;2023-04-01T23:15:42;101229.69;;;6.01;83.70
51289;BME280;37372;52.294;5.152;2023-04-01T23:18:18;101236.94;;;5.94;83.14
51289;BME280;37372;52.294;5.152;2023-04-01T23:21:00;101237.47;;;5.89;83.12
51289;BME280;37372;52.294;5.152;2023-04-01T23:24:12;101246.59;;;5.82;82.59
51289;BME280;37372;52.294;5.152;2023-04-01T23:29:20;101263.97;;;5.81;83.30
51289;BME280;37372;52.294;5.152;2023-04-01T23:31:59;101261.03;;;5.82;83.45
51289;BME280;37372;52.294;5.152;2023-04-01T23:34:36;101270.25;;;5.81;83.36
51289;BME280;37372;52.294;5.152;2023-04-01T23:37:24;101268.38;;;5.82;83.06
51289;BME280;37372;52.294;5.152;2023-04-01T23:39:52;101276.25;;;5.77;82.86
51289;BME280;37372;52.294;5.152;2023-04-01T23:42:31;101276.53;;;5.82;83.12
51289;BME280;37372;52.294;5.152;2023-04-01T23:45:12;101284.72;;;5.67;83.59
51289;BME280;37372;52.294;5.152;2023-04-01T23:47:40;101289.69;;;5.63;83.06
51289;BME280;37372;52.294;5.152;2023-04-01T23:50:11;101299.53;;;5.64;82.99
51289;BME280;37372;52.294;5.152;2023-04-01T23:52:45;101294.84;;;5.58;82.95
51289;BME280;37372;52.294;5.152;2023-04-01T23:55:22;101285.28;;;5.62;83.37
51289;BME280;37372;52.294;5.152;2023-04-01T23:58:27;101301.06;;;5.67;83.18
